sensor_id;sensor_type;location;lat;lon;timestamp;temperature;humidity
49218;DHT22;35045;51.194;7.268;2022-09-01T00:01:52;17.30;97.40
49218;DHT22;35045;51.194;7.268;2022-09-01T00:04:23;17.30;97.40
49218;DHT22;35045;51.194;7.268;2022-09-01T00:06:50;17.30;97.50
49218;DHT22;35045;51.194;7.268;2022-09-01T00:09:19;17.30;97.50
49218;DHT22;35045;51.194;7.268;2022-09-01T00:11:48;17.20;97.50
49218;DHT22;35045;51.194;7.268;2022-09-01T00:14:14;17.20;97.80
49218;DHT22;35045;51.194;7.268;2022-09-01T00:16:39;17.10;97.60
49218;DHT22;35045;51.194;7.268;2022-09-01T00:19:05;17.10;97.90
49218;DHT22;35045;51.194;7.268;2022-09-01T00:21:33;17.10;97.70
49218;DHT22;35045;51.194;7.268;2022-09-01T00:24:00;17.10;97.70
49218;DHT22;35045;51.194;7.268;2022-09-01T00:26:26;17.00;97.70
49218;DHT22;35045;51.194;7.268;2022-09-01T00:28:51;17.10;97.70
49218;DHT22;35045;51.194;7.268;2022-09-01T00:31:17;17.10;97.90
49218;DHT22;35045;51.194;7.268;2022-09-01T00:33:43;17.10;98.10
49218;DHT22;35045;51.194;7.268;2022-09-01T00:36:08;17.10;98.00
49218;DHT22;35045;51.194;7.268;2022-09-01T00:38:34;17.00;97.80
49218;DHT22;35045;51.194;7.268;2022-09-01T00:40:59;17.00;97.70
49218;DHT22;35045;51.194;7.268;2022-09-01T00:43:41;17.00;97.80
49218;DHT22;35045;51.194;7.268;2022-09-01T00:46:11;17.00;98.20
49218;DHT22;35045;51.194;7.268;2022-09-01T00:48:37;17.00;98.00
49218;DHT22;35045;51.194;7.268;2022-09-01T00:51:03;17.00;98.20
49218;DHT22;35045;51.194;7.268;2022-09-01T00:53:29;17.00;98.20
49218;DHT22;35045;51.194;7.268;2022-09-01T00:55:54;17.00;98.00
49218;DHT22;35045;51.194;7.268;2022-09-01T00:58:19;16.90;98.10
49218;DHT22;35045;51.194;7.268;2022-09-01T01:00:46;16.90;98.20
49218;DHT22;35045;51.194;7.268;2022-09-01T01:03:13;16.90;98.40
49218;DHT22;35045;51.194;7.268;2022-09-01T01:05:39;17.00;98.60
49218;DHT22;35045;51.194;7.268;2022-09-01T01:08:07;17.00;98.60
49218;DHT22;35045;51.194;7.268;2022-09-01T01:10:37;17.00;98.40
49218;DHT22;35045;51.194;7.268;2022-09-01T01:13:11;17.00;98.30
49218;DHT22;35045;51.194;7.268;2022-09-01T01:15:37;16.90;98.20
49218;DHT22;35045;51.194;7.268;2022-09-01T01:18:03;16.90;98.30
49218;DHT22;35045;51.194;7.268;2022-09-01T01:20:30;16.90;98.40
49218;DHT22;35045;51.194;7.268;2022-09-01T01:23:20;16.90;98.50
49218;DHT22;35045;51.194;7.268;2022-09-01T01:25:54;16.80;98.60
49218;DHT22;35045;51.194;7.268;2022-09-01T01:28:24;16.80;98.80
49218;DHT22;35045;51.194;7.268;2022-09-01T01:30:53;16.70;98.60
49218;DHT22;35045;51.194;7.268;2022-09-01T01:33:25;16.70;98.70
49218;DHT22;35045;51.194;7.268;2022-09-01T01:35:51;16.60;98.40
49218;DHT22;35045;51.194;7.268;2022-09-01T01:38:18;16.60;98.40
49218;DHT22;35045;51.194;7.268;2022-09-01T01:40:45;16.60;98.60
49218;DHT22;35045;51.194;7.268;2022-09-01T01:43:10;16.60;98.60
49218;DHT22;35045;51.194;7.268;2022-09-01T01:45:43;16.70;98.70
49218;DHT22;35045;51.194;7.268;2022-09-01T01:48:08;16.70;98.70
49218;DHT22;35045;51.194;7.268;2022-09-01T01:50:34;16.70;98.80
49218;DHT22;35045;51.194;7.268;2022-09-01T01:53:03;16.70;98.70
49218;DHT22;35045;51.194;7.268;2022-09-01T01:55:29;16.70;98.80
49218;DHT22;35045;51.194;7.268;2022-09-01T01:57:55;16.70;98.70
49218;DHT22;35045;51.194;7.268;2022-09-01T02:00:22;16.60;98.50
49218;DHT22;35045;51.194;7.268;2022-09-01T02:02:51;16.60;98.60
49218;DHT22;35045;51.194;7.268;2022-09-01T02:05:18;16.60;98.70
49218;DHT22;35045;51.194;7.268;2022-09-01T02:07:47;16.60;98.80
49218;DHT22;35045;51.194;7.268;2022-09-01T02:10:12;16.70;98.80
49218;DHT22;35045;51.194;7.268;2022-09-01T02:12:37;16.70;98.80
49218;DHT22;35045;51.194;7.268;2022-09-01T02:15:05;16.70;98.80
49218;DHT22;35045;51.194;7.268;2022-09-01T02:17:31;16.70;98.90
49218;DHT22;35045;51.194;7.268;2022-09-01T02:19:55;16.60;98.60
49218;DHT22;35045;51.194;7.268;2022-09-01T02:22:21;16.60;98.40
49218;DHT22;35045;51.194;7.268;2022-09-01T02:24:46;16.50;98.40
49218;DHT22;35045;51.194;7.268;2022-09-01T02:27:12;16.60;98.30
49218;DHT22;35045;51.194;7.268;2022-09-01T02:29:39;16.50;98.20
49218;DHT22;35045;51.194;7.268;2022-09-01T02:32:04;16.50;98.30
49218;DHT22;35045;51.194;7.268;2022-09-01T02:34:29;16.50;98.30
49218;DHT22;35045;51.194;7.268;2022-09-01T02:36:55;16.50;98.40
49218;DHT22;35045;51.194;7.268;2022-09-01T02:39:26;16.40;98.30
49218;DHT22;35045;51.194;7.268;2022-09-01T02:41:52;16.40;98.40
49218;DHT22;35045;51.194;7.268;2022-09-01T02:44:17;16.40;98.40
49218;DHT22;35045;51.194;7.268;2022-09-01T02:46:45;16.40;98.50
49218;DHT22;35045;51.194;7.268;2022-09-01T02:49:13;16.40;98.40
49218;DHT22;35045;51.194;7.268;2022-09-01T02:51:43;16.40;98.30
49218;DHT22;35045;51.194;7.268;2022-09-01T02:54:09;16.40;98.30
49218;DHT22;35045;51.194;7.268;2022-09-01T02:56:34;16.30;98.30
49218;DHT22;35045;51.194;7.268;2022-09-01T02:58:59;16.30;98.30
49218;DHT22;35045;51.194;7.268;2022-09-01T03:01:29;16.30;98.30
49218;DHT22;35045;51.194;7.268;2022-09-01T03:03:57;16.30;98.40
49218;DHT22;35045;51.194;7.268;2022-09-01T03:06:23;16.30;98.40
49218;DHT22;35045;51.194;7.268;2022-09-01T03:08:50;16.30;98.40
49218;DHT22;35045;51.194;7.268;2022-09-01T03:11:15;16.30;98.40
49218;DHT22;35045;51.194;7.268;2022-09-01T03:13:41;16.20;98.40
49218;DHT22;35045;51.194;7.268;2022-09-01T03:16:06;16.20;98.50
49218;DHT22;35045;51.194;7.268;2022-09-01T03:18:32;16.20;98.60
49218;DHT22;35045;51.194;7.268;2022-09-01T03:20:57;16.20;98.60
49218;DHT22;35045;51.194;7.268;2022-09-01T03:23:22;16.10;98.80
49218;DHT22;35045;51.194;7.268;2022-09-01T03:25:49;16.10;98.80
49218;DHT22;35045;51.194;7.268;2022-09-01T03:28:14;16.10;98.80
49218;DHT22;35045;51.194;7.268;2022-09-01T03:30:47;16.10;98.90
49218;DHT22;35045;51.194;7.268;2022-09-01T03:33:14;16.10;98.90
49218;DHT22;35045;51.194;7.268;2022-09-01T03:35:40;16.00;98.90
49218;DHT22;35045;51.194;7.268;2022-09-01T03:38:06;16.00;99.00
49218;DHT22;35045;51.194;7.268;2022-09-01T03:40:34;16.00;99.00
49218;DHT22;35045;51.194;7.268;2022-09-01T03:43:02;16.00;99.00
49218;DHT22;35045;51.194;7.268;2022-09-01T03:45:28;16.00;99.00
49218;DHT22;35045;51.194;7.268;2022-09-01T03:47:53;16.00;99.00
49218;DHT22;35045;51.194;7.268;2022-09-01T03:50:20;16.10;99.00
49218;DHT22;35045;51.194;7.268;2022-09-01T03:55:12;16.00;99.20
49218;DHT22;35045;51.194;7.268;2022-09-01T03:57:42;15.90;99.30
49218;DHT22;35045;51.194;7.268;2022-09-01T04:00:07;15.90;99.40
49218;DHT22;35045;51.194;7.268;2022-09-01T04:02:37;15.80;99.40
49218;DHT22;35045;51.194;7.268;2022-09-01T04:05:02;15.80;99.50
49218;DHT22;35045;51.194;7.268;2022-09-01T04:07:27;15.80;99.50
49218;DHT22;35045;51.194;7.268;2022-09-01T04:09:52;15.80;99.50
49218;DHT22;35045;51.194;7.268;2022-09-01T04:12:17;15.80;99.50
49218;DHT22;35045;51.194;7.268;2022-09-01T04:14:42;15.80;99.40
49218;DHT22;35045;51.194;7.268;2022-09-01T04:17:07;15.80;99.40
49218;DHT22;35045;51.194;7.268;2022-09-01T04:19:51;15.90;99.50
49218;DHT22;35045;51.194;7.268;2022-09-01T04:22:16;15.90;99.40
49218;DHT22;35045;51.194;7.268;2022-09-01T04:24:41;15.90;99.40
49218;DHT22;35045;51.194;7.268;2022-09-01T04:27:09;15.90;99.40
49218;DHT22;35045;51.194;7.268;2022-09-01T04:29:34;15.90;99.40
49218;DHT22;35045;51.194;7.268;2022-09-01T04:32:03;15.90;99.50
49218;DHT22;35045;51.194;7.268;2022-09-01T04:34:30;15.80;99.40
49218;DHT22;35045;51.194;7.268;2022-09-01T04:37:00;15.70;99.50
49218;DHT22;35045;51.194;7.268;2022-09-01T04:39:26;15.70;99.50
49218;DHT22;35045;51.194;7.268;2022-09-01T04:41:52;15.70;99.60
49218;DHT22;35045;51.194;7.268;2022-09-01T04:44:18;15.70;99.60
49218;DHT22;35045;51.194;7.268;2022-09-01T04:46:44;15.70;99.60
49218;DHT22;35045;51.194;7.268;2022-09-01T04:49:12;15.70;99.60
49218;DHT22;35045;51.194;7.268;2022-09-01T04:51:45;15.70;99.60
49218;DHT22;35045;51.194;7.268;2022-09-01T04:54:11;15.70;99.50
49218;DHT22;35045;51.194;7.268;2022-09-01T04:56:39;15.70;99.50
49218;DHT22;35045;51.194;7.268;2022-09-01T04:59:04;15.70;99.70
49218;DHT22;35045;51.194;7.268;2022-09-01T05:01:33;15.70;99.90
49218;DHT22;35045;51.194;7.268;2022-09-01T05:04:06;15.70;99.90
49218;DHT22;35045;51.194;7.268;2022-09-01T05:06:31;15.70;99.80
49218;DHT22;35045;51.194;7.268;2022-09-01T05:08:58;15.70;99.90
49218;DHT22;35045;51.194;7.268;2022-09-01T05:11:23;15.70;99.80
49218;DHT22;35045;51.194;7.268;2022-09-01T05:13:50;15.70;99.90
49218;DHT22;35045;51.194;7.268;2022-09-01T05:16:19;15.80;99.90
49218;DHT22;35045;51.194;7.268;2022-09-01T05:18:46;15.70;99.70
49218;DHT22;35045;51.194;7.268;2022-09-01T05:21:14;15.80;99.90
49218;DHT22;35045;51.194;7.268;2022-09-01T05:23:42;15.80;99.80
49218;DHT22;35045;51.194;7.268;2022-09-01T05:26:15;15.90;99.80
49218;DHT22;35045;51.194;7.268;2022-09-01T05:28:44;15.90;99.90
49218;DHT22;35045;51.194;7.268;2022-09-01T05:31:09;15.90;99.70
49218;DHT22;35045;51.194;7.268;2022-09-01T05:33:36;15.90;99.50
49218;DHT22;35045;51.194;7.268;2022-09-01T05:36:03;16.00;99.60
49218;DHT22;35045;51.194;7.268;2022-09-01T05:38:32;16.00;99.40
49218;DHT22;35045;51.194;7.268;2022-09-01T05:41:00;16.10;99.40
49218;DHT22;35045;51.194;7.268;2022-09-01T05:43:27;16.10;99.00
49218;DHT22;35045;51.194;7.268;2022-09-01T05:45:54;16.10;99.10
49218;DHT22;35045;51.194;7.268;2022-09-01T05:48:19;16.20;99.10
49218;DHT22;35045;51.194;7.268;2022-09-01T05:50:45;16.30;99.10
49218;DHT22;35045;51.194;7.268;2022-09-01T05:53:11;16.30;99.00
49218;DHT22;35045;51.194;7.268;2022-09-01T05:55:42;16.30;98.80
49218;DHT22;35045;51.194;7.268;2022-09-01T05:58:09;16.40;98.80
49218;DHT22;35045;51.194;7.268;2022-09-01T06:00:37;16.50;98.80
49218;DHT22;35045;51.194;7.268;2022-09-01T06:03:02;16.50;98.40
49218;DHT22;35045;51.194;7.268;2022-09-01T06:05:28;16.60;98.50
49218;DHT22;35045;51.194;7.268;2022-09-01T06:07:53;16.70;98.50
49218;DHT22;35045;51.194;7.268;2022-09-01T06:10:21;16.80;98.00
49218;DHT22;35045;51.194;7.268;2022-09-01T06:12:46;16.90;97.70
49218;DHT22;35045;51.194;7.268;2022-09-01T06:15:11;17.00;97.60
49218;DHT22;35045;51.194;7.268;2022-09-01T06:17:39;17.20;97.50
49218;DHT22;35045;51.194;7.268;2022-09-01T06:20:05;17.20;97.30
49218;DHT22;35045;51.194;7.268;2022-09-01T06:22:34;17.40;97.10
49218;DHT22;35045;51.194;7.268;2022-09-01T06:24:59;17.40;97.20
49218;DHT22;35045;51.194;7.268;2022-09-01T06:27:24;17.50;97.30
49218;DHT22;35045;51.194;7.268;2022-09-01T06:29:49;17.60;97.20
49218;DHT22;35045;51.194;7.268;2022-09-01T06:32:18;17.60;96.70
49218;DHT22;35045;51.194;7.268;2022-09-01T06:34:44;17.60;96.60
49218;DHT22;35045;51.194;7.268;2022-09-01T06:37:14;17.60;96.40
49218;DHT22;35045;51.194;7.268;2022-09-01T06:39:40;17.70;96.60
49218;DHT22;35045;51.194;7.268;2022-09-01T06:42:05;17.80;96.60
49218;DHT22;35045;51.194;7.268;2022-09-01T06:44:30;17.80;96.20
49218;DHT22;35045;51.194;7.268;2022-09-01T06:46:55;17.90;96.10
49218;DHT22;35045;51.194;7.268;2022-09-01T06:49:21;18.00;96.20
49218;DHT22;35045;51.194;7.268;2022-09-01T06:51:56;18.00;96.20
49218;DHT22;35045;51.194;7.268;2022-09-01T06:54:23;18.10;96.00
49218;DHT22;35045;51.194;7.268;2022-09-01T06:56:49;18.00;95.90
49218;DHT22;35045;51.194;7.268;2022-09-01T06:59:14;18.00;95.70
49218;DHT22;35045;51.194;7.268;2022-09-01T07:01:39;18.20;96.10
49218;DHT22;35045;51.194;7.268;2022-09-01T07:04:04;18.20;95.50
49218;DHT22;35045;51.194;7.268;2022-09-01T07:06:29;18.30;95.40
49218;DHT22;35045;51.194;7.268;2022-09-01T07:08:56;18.30;95.00
49218;DHT22;35045;51.194;7.268;2022-09-01T07:11:25;18.40;95.10
49218;DHT22;35045;51.194;7.268;2022-09-01T07:13:58;18.40;95.20
49218;DHT22;35045;51.194;7.268;2022-09-01T07:16:26;18.50;94.60
49218;DHT22;35045;51.194;7.268;2022-09-01T07:18:54;18.60;94.70
49218;DHT22;35045;51.194;7.268;2022-09-01T07:21:22;18.70;94.70
49218;DHT22;35045;51.194;7.268;2022-09-01T07:23:47;18.70;94.30
49218;DHT22;35045;51.194;7.268;2022-09-01T07:26:13;18.90;94.70
49218;DHT22;35045;51.194;7.268;2022-09-01T07:28:50;19.00;94.60
49218;DHT22;35045;51.194;7.268;2022-09-01T07:31:37;19.10;94.30
49218;DHT22;35045;51.194;7.268;2022-09-01T07:34:06;19.20;93.80
49218;DHT22;35045;51.194;7.268;2022-09-01T07:36:38;19.30;93.80
49218;DHT22;35045;51.194;7.268;2022-09-01T07:39:04;19.40;93.70
49218;DHT22;35045;51.194;7.268;2022-09-01T07:41:29;19.50;93.60
49218;DHT22;35045;51.194;7.268;2022-09-01T07:43:54;19.60;92.60
49218;DHT22;35045;51.194;7.268;2022-09-01T07:46:21;19.70;92.00
49218;DHT22;35045;51.194;7.268;2022-09-01T07:48:47;19.80;91.80
49218;DHT22;35045;51.194;7.268;2022-09-01T07:51:12;19.90;91.10
49218;DHT22;35045;51.194;7.268;2022-09-01T07:53:42;20.00;90.90
49218;DHT22;35045;51.194;7.268;2022-09-01T07:56:09;20.10;90.30
49218;DHT22;35045;51.194;7.268;2022-09-01T07:58:36;20.10;89.60
49218;DHT22;35045;51.194;7.268;2022-09-01T08:01:06;20.20;90.10
49218;DHT22;35045;51.194;7.268;2022-09-01T08:03:31;20.20;87.90
49218;DHT22;35045;51.194;7.268;2022-09-01T08:06:05;20.20;89.20
49218;DHT22;35045;51.194;7.268;2022-09-01T08:08:31;20.30;88.10
49218;DHT22;35045;51.194;7.268;2022-09-01T08:10:56;20.30;88.00
49218;DHT22;35045;51.194;7.268;2022-09-01T08:13:21;20.30;87.10
49218;DHT22;35045;51.194;7.268;2022-09-01T08:15:47;20.30;86.60
49218;DHT22;35045;51.194;7.268;2022-09-01T08:18:13;20.30;86.60
49218;DHT22;35045;51.194;7.268;2022-09-01T08:20:39;20.40;86.40
49218;DHT22;35045;51.194;7.268;2022-09-01T08:23:09;20.50;84.90
49218;DHT22;35045;51.194;7.268;2022-09-01T08:25:35;20.50;85.00
49218;DHT22;35045;51.194;7.268;2022-09-01T08:28:01;20.60;86.50
49218;DHT22;35045;51.194;7.268;2022-09-01T08:30:26;20.90;85.90
49218;DHT22;35045;51.194;7.268;2022-09-01T08:32:52;21.00;86.00
49218;DHT22;35045;51.194;7.268;2022-09-01T08:35:17;21.00;84.50
49218;DHT22;35045;51.194;7.268;2022-09-01T08:37:42;21.00;84.70
49218;DHT22;35045;51.194;7.268;2022-09-01T08:40:13;20.90;85.50
49218;DHT22;35045;51.194;7.268;2022-09-01T08:45:29;20.90;85.80
49218;DHT22;35045;51.194;7.268;2022-09-01T08:47:58;20.90;84.30
49218;DHT22;35045;51.194;7.268;2022-09-01T08:50:24;20.90;83.20
49218;DHT22;35045;51.194;7.268;2022-09-01T08:53:01;21.00;84.00
49218;DHT22;35045;51.194;7.268;2022-09-01T08:55:35;21.00;84.90
49218;DHT22;35045;51.194;7.268;2022-09-01T08:58:02;21.20;84.10
49218;DHT22;35045;51.194;7.268;2022-09-01T09:00:36;21.20;83.20
49218;DHT22;35045;51.194;7.268;2022-09-01T09:06:04;21.50;81.40
49218;DHT22;35045;51.194;7.268;2022-09-01T09:08:42;21.60;82.40
49218;DHT22;35045;51.194;7.268;2022-09-01T09:14:30;21.90;81.10
49218;DHT22;35045;51.194;7.268;2022-09-01T09:16:57;21.80;81.50
49218;DHT22;35045;51.194;7.268;2022-09-01T09:19:38;21.90;80.90
49218;DHT22;35045;51.194;7.268;2022-09-01T09:22:13;22.00;80.80
49218;DHT22;35045;51.194;7.268;2022-09-01T09:27:28;22.20;80.80
49218;DHT22;35045;51.194;7.268;2022-09-01T09:30:00;22.10;80.50
49218;DHT22;35045;51.194;7.268;2022-09-01T09:32:54;22.20;81.60
49218;DHT22;35045;51.194;7.268;2022-09-01T09:38:15;22.70;80.60
49218;DHT22;35045;51.194;7.268;2022-09-01T09:41:14;22.80;80.30
49218;DHT22;35045;51.194;7.268;2022-09-01T09:43:45;22.50;81.10
49218;DHT22;35045;51.194;7.268;2022-09-01T09:46:32;22.50;81.80
49218;DHT22;35045;51.194;7.268;2022-09-01T09:51:36;22.40;82.00
49218;DHT22;35045;51.194;7.268;2022-09-01T09:54:31;22.50;81.90
49218;DHT22;35045;51.194;7.268;2022-09-01T09:59:53;22.80;81.20
49218;DHT22;35045;51.194;7.268;2022-09-01T10:04:53;23.00;81.20
49218;DHT22;35045;51.194;7.268;2022-09-01T10:09:48;23.50;77.20
49218;DHT22;35045;51.194;7.268;2022-09-01T10:12:13;23.40;77.30
49218;DHT22;35045;51.194;7.268;2022-09-01T10:14:48;23.60;78.00
49218;DHT22;35045;51.194;7.268;2022-09-01T10:17:18;23.70;77.40
49218;DHT22;35045;51.194;7.268;2022-09-01T10:19:55;23.80;77.00
49218;DHT22;35045;51.194;7.268;2022-09-01T10:22:21;24.00;75.90
49218;DHT22;35045;51.194;7.268;2022-09-01T10:24:47;24.10;75.60
49218;DHT22;35045;51.194;7.268;2022-09-01T10:27:19;24.00;76.00
49218;DHT22;35045;51.194;7.268;2022-09-01T10:29:48;24.00;75.70
49218;DHT22;35045;51.194;7.268;2022-09-01T10:32:22;24.10;75.40
49218;DHT22;35045;51.194;7.268;2022-09-01T10:34:49;24.20;75.90
49218;DHT22;35045;51.194;7.268;2022-09-01T10:37:15;24.10;76.60
49218;DHT22;35045;51.194;7.268;2022-09-01T10:40:16;24.10;76.40
49218;DHT22;35045;51.194;7.268;2022-09-01T10:42:43;24.00;76.40
49218;DHT22;35045;51.194;7.268;2022-09-01T10:45:28;23.70;76.10
49218;DHT22;35045;51.194;7.268;2022-09-01T10:47:54;23.50;76.50
49218;DHT22;35045;51.194;7.268;2022-09-01T10:50:28;23.60;77.70
49218;DHT22;35045;51.194;7.268;2022-09-01T10:53:01;23.80;76.80
49218;DHT22;35045;51.194;7.268;2022-09-01T10:55:33;23.70;76.80
49218;DHT22;35045;51.194;7.268;2022-09-01T10:58:26;23.70;77.10
49218;DHT22;35045;51.194;7.268;2022-09-01T11:00:53;23.90;76.10
49218;DHT22;35045;51.194;7.268;2022-09-01T11:05:57;24.00;75.60
49218;DHT22;35045;51.194;7.268;2022-09-01T11:11:00;24.60;76.40
49218;DHT22;35045;51.194;7.268;2022-09-01T11:13:42;24.80;75.40
49218;DHT22;35045;51.194;7.268;2022-09-01T11:18:55;24.60;75.60
49218;DHT22;35045;51.194;7.268;2022-09-01T11:21:39;24.60;75.30
49218;DHT22;35045;51.194;7.268;2022-09-01T11:24:42;24.50;75.70
49218;DHT22;35045;51.194;7.268;2022-09-01T11:27:10;24.40;75.80
49218;DHT22;35045;51.194;7.268;2022-09-01T11:29:54;24.40;76.00
49218;DHT22;35045;51.194;7.268;2022-09-01T11:32:36;24.20;75.00
49218;DHT22;35045;51.194;7.268;2022-09-01T11:35:04;24.20;74.00
49218;DHT22;35045;51.194;7.268;2022-09-01T11:37:31;24.00;74.30
49218;DHT22;35045;51.194;7.268;2022-09-01T11:40:02;24.00;75.40
49218;DHT22;35045;51.194;7.268;2022-09-01T11:42:32;23.70;74.70
49218;DHT22;35045;51.194;7.268;2022-09-01T11:47:36;23.50;75.70
49218;DHT22;35045;51.194;7.268;2022-09-01T11:50:07;23.30;74.90
49218;DHT22;35045;51.194;7.268;2022-09-01T11:52:40;23.60;75.60
49218;DHT22;35045;51.194;7.268;2022-09-01T11:55:06;23.70;75.00
49218;DHT22;35045;51.194;7.268;2022-09-01T11:57:35;23.70;75.20
49218;DHT22;35045;51.194;7.268;2022-09-01T12:00:05;23.70;74.70
49218;DHT22;35045;51.194;7.268;2022-09-01T12:02:33;23.60;75.00
49218;DHT22;35045;51.194;7.268;2022-09-01T12:05:00;23.70;75.80
49218;DHT22;35045;51.194;7.268;2022-09-01T12:07:39;23.90;76.40
49218;DHT22;35045;51.194;7.268;2022-09-01T12:10:35;24.00;75.40
49218;DHT22;35045;51.194;7.268;2022-09-01T12:13:16;23.90;75.20
49218;DHT22;35045;51.194;7.268;2022-09-01T12:15:42;24.20;75.50
49218;DHT22;35045;51.194;7.268;2022-09-01T12:18:13;24.40;74.30
49218;DHT22;35045;51.194;7.268;2022-09-01T12:20:39;24.10;74.00
49218;DHT22;35045;51.194;7.268;2022-09-01T12:25:43;24.30;73.70
49218;DHT22;35045;51.194;7.268;2022-09-01T12:28:09;24.60;73.40
49218;DHT22;35045;51.194;7.268;2022-09-01T12:30:35;25.20;73.30
49218;DHT22;35045;51.194;7.268;2022-09-01T12:33:04;25.50;72.10
49218;DHT22;35045;51.194;7.268;2022-09-01T12:35:30;25.80;72.30
49218;DHT22;35045;51.194;7.268;2022-09-01T12:40:38;25.30;71.00
49218;DHT22;35045;51.194;7.268;2022-09-01T12:43:03;24.90;71.50
49218;DHT22;35045;51.194;7.268;2022-09-01T12:45:41;24.80;71.80
49218;DHT22;35045;51.194;7.268;2022-09-01T12:48:25;24.50;71.70
49218;DHT22;35045;51.194;7.268;2022-09-01T12:50:52;24.40;72.40
49218;DHT22;35045;51.194;7.268;2022-09-01T12:53:20;25.00;72.00
49218;DHT22;35045;51.194;7.268;2022-09-01T12:56:04;25.20;71.50
49218;DHT22;35045;51.194;7.268;2022-09-01T12:58:29;25.40;71.60
49218;DHT22;35045;51.194;7.268;2022-09-01T13:01:05;25.40;71.20
49218;DHT22;35045;51.194;7.268;2022-09-01T13:03:32;25.90;72.10
49218;DHT22;35045;51.194;7.268;2022-09-01T13:05:59;26.10;70.40
49218;DHT22;35045;51.194;7.268;2022-09-01T13:08:27;25.90;70.00
49218;DHT22;35045;51.194;7.268;2022-09-01T13:11:00;25.70;70.40
49218;DHT22;35045;51.194;7.268;2022-09-01T13:13:26;25.50;70.20
49218;DHT22;35045;51.194;7.268;2022-09-01T13:15:54;25.70;69.80
49218;DHT22;35045;51.194;7.268;2022-09-01T13:18:22;25.70;69.90
49218;DHT22;35045;51.194;7.268;2022-09-01T13:20:48;25.60;69.30
49218;DHT22;35045;51.194;7.268;2022-09-01T13:23:13;26.00;68.90
49218;DHT22;35045;51.194;7.268;2022-09-01T13:25:39;26.40;68.30
49218;DHT22;35045;51.194;7.268;2022-09-01T13:28:06;26.80;68.00
49218;DHT22;35045;51.194;7.268;2022-09-01T13:30:31;27.30;67.30
49218;DHT22;35045;51.194;7.268;2022-09-01T13:32:56;27.10;67.50
49218;DHT22;35045;51.194;7.268;2022-09-01T13:35:22;27.80;67.10
49218;DHT22;35045;51.194;7.268;2022-09-01T13:37:47;28.20;66.60
49218;DHT22;35045;51.194;7.268;2022-09-01T13:40:14;28.70;65.50
49218;DHT22;35045;51.194;7.268;2022-09-01T13:42:39;28.80;64.70
49218;DHT22;35045;51.194;7.268;2022-09-01T13:45:04;28.70;64.20
49218;DHT22;35045;51.194;7.268;2022-09-01T13:47:30;28.40;64.00
49218;DHT22;35045;51.194;7.268;2022-09-01T13:49:55;28.10;64.60
49218;DHT22;35045;51.194;7.268;2022-09-01T13:52:20;28.20;64.00
49218;DHT22;35045;51.194;7.268;2022-09-01T13:54:45;28.30;64.40
49218;DHT22;35045;51.194;7.268;2022-09-01T13:57:11;28.40;64.60
49218;DHT22;35045;51.194;7.268;2022-09-01T13:59:38;28.70;63.60
49218;DHT22;35045;51.194;7.268;2022-09-01T14:02:05;29.10;63.30
49218;DHT22;35045;51.194;7.268;2022-09-01T14:04:31;29.70;61.70
49218;DHT22;35045;51.194;7.268;2022-09-01T14:06:56;30.00;60.20
49218;DHT22;35045;51.194;7.268;2022-09-01T14:09:23;30.30;58.50
49218;DHT22;35045;51.194;7.268;2022-09-01T14:11:52;30.50;57.20
49218;DHT22;35045;51.194;7.268;2022-09-01T14:14:17;30.70;57.70
49218;DHT22;35045;51.194;7.268;2022-09-01T14:16:44;31.00;57.90
49218;DHT22;35045;51.194;7.268;2022-09-01T14:19:10;31.10;56.90
49218;DHT22;35045;51.194;7.268;2022-09-01T14:21:35;31.20;57.50
49218;DHT22;35045;51.194;7.268;2022-09-01T14:24:01;31.40;56.30
49218;DHT22;35045;51.194;7.268;2022-09-01T14:26:26;31.40;55.90
49218;DHT22;35045;51.194;7.268;2022-09-01T14:28:51;31.20;56.10
49218;DHT22;35045;51.194;7.268;2022-09-01T14:31:17;31.20;56.20
49218;DHT22;35045;51.194;7.268;2022-09-01T14:33:42;31.20;55.20
49218;DHT22;35045;51.194;7.268;2022-09-01T14:36:14;31.20;55.40
49218;DHT22;35045;51.194;7.268;2022-09-01T14:38:39;31.10;55.30
49218;DHT22;35045;51.194;7.268;2022-09-01T14:41:04;31.30;55.00
49218;DHT22;35045;51.194;7.268;2022-09-01T14:43:29;31.20;54.00
49218;DHT22;35045;51.194;7.268;2022-09-01T14:46:07;31.30;54.30
49218;DHT22;35045;51.194;7.268;2022-09-01T14:48:34;31.00;53.50
49218;DHT22;35045;51.194;7.268;2022-09-01T14:50:59;31.10;53.90
49218;DHT22;35045;51.194;7.268;2022-09-01T14:53:24;31.20;53.40
49218;DHT22;35045;51.194;7.268;2022-09-01T14:55:49;31.20;53.80
49218;DHT22;35045;51.194;7.268;2022-09-01T14:58:14;31.30;53.90
49218;DHT22;35045;51.194;7.268;2022-09-01T15:00:40;31.20;54.60
49218;DHT22;35045;51.194;7.268;2022-09-01T15:03:05;31.30;53.60
49218;DHT22;35045;51.194;7.268;2022-09-01T15:05:30;31.20;53.40
49218;DHT22;35045;51.194;7.268;2022-09-01T15:07:55;31.00;53.90
49218;DHT22;35045;51.194;7.268;2022-09-01T15:10:23;30.40;53.90
49218;DHT22;35045;51.194;7.268;2022-09-01T15:12:49;30.00;55.00
49218;DHT22;35045;51.194;7.268;2022-09-01T15:15:14;29.80;55.80
49218;DHT22;35045;51.194;7.268;2022-09-01T15:17:40;29.50;55.10
49218;DHT22;35045;51.194;7.268;2022-09-01T15:20:05;28.80;56.20
49218;DHT22;35045;51.194;7.268;2022-09-01T15:22:49;28.30;56.50
49218;DHT22;35045;51.194;7.268;2022-09-01T15:25:16;28.00;57.60
49218;DHT22;35045;51.194;7.268;2022-09-01T15:27:41;27.70;58.10
49218;DHT22;35045;51.194;7.268;2022-09-01T15:30:07;27.50;58.30
49218;DHT22;35045;51.194;7.268;2022-09-01T15:32:38;27.30;58.50
49218;DHT22;35045;51.194;7.268;2022-09-01T15:35:03;26.90;58.90
49218;DHT22;35045;51.194;7.268;2022-09-01T15:37:29;26.70;59.30
49218;DHT22;35045;51.194;7.268;2022-09-01T15:39:54;26.50;59.70
49218;DHT22;35045;51.194;7.268;2022-09-01T15:42:19;26.20;60.20
49218;DHT22;35045;51.194;7.268;2022-09-01T15:44:45;26.10;60.50
49218;DHT22;35045;51.194;7.268;2022-09-01T15:47:11;25.90;60.50
49218;DHT22;35045;51.194;7.268;2022-09-01T15:49:36;25.70;61.20
49218;DHT22;35045;51.194;7.268;2022-09-01T15:52:01;25.60;61.30
49218;DHT22;35045;51.194;7.268;2022-09-01T15:54:26;25.60;61.30
49218;DHT22;35045;51.194;7.268;2022-09-01T15:56:51;25.50;61.00
49218;DHT22;35045;51.194;7.268;2022-09-01T15:59:16;25.40;61.30
49218;DHT22;35045;51.194;7.268;2022-09-01T16:01:44;25.30;61.20
49218;DHT22;35045;51.194;7.268;2022-09-01T16:04:11;25.30;61.30
49218;DHT22;35045;51.194;7.268;2022-09-01T16:06:38;25.30;61.20
49218;DHT22;35045;51.194;7.268;2022-09-01T16:09:04;25.40;60.40
49218;DHT22;35045;51.194;7.268;2022-09-01T16:11:29;25.40;60.90
49218;DHT22;35045;51.194;7.268;2022-09-01T16:13:54;25.40;60.70
49218;DHT22;35045;51.194;7.268;2022-09-01T16:16:48;25.50;60.60
49218;DHT22;35045;51.194;7.268;2022-09-01T16:22:21;25.20;60.90
49218;DHT22;35045;51.194;7.268;2022-09-01T16:24:52;25.00;61.10